createdAt,value
2018-06-17T00:00:29.497Z,3.27
2018-06-17T00:03:01.528Z,3.47
2018-06-17T00:05:36.469Z,3.50
2018-06-17T00:10:42.678Z,3.10
2018-06-17T00:13:11.633Z,3.43
2018-06-17T00:15:40.630Z,3.67
2018-06-17T00:18:13.506Z,3.30
2018-06-17T00:20:48.656Z,3.03
2018-06-17T00:23:26.282Z,3.50
2018-06-17T00:26:00.847Z,2.80
2018-06-17T00:28:29.911Z,3.53
2018-06-17T00:30:58.886Z,3.97
2018-06-17T00:33:28.187Z,2.90
2018-06-17T00:36:00.915Z,3.80
2018-06-17T00:38:38.435Z,4.10
2018-06-17T00:41:13.564Z,3.57
2018-06-17T00:43:49.144Z,4.00
2018-06-17T00:46:18.036Z,3.47
2018-06-17T00:48:47.934Z,3.73
2018-06-17T00:51:16.963Z,4.00
2018-06-17T00:56:28.534Z,3.70
2018-06-17T00:59:04.381Z,4.40
2018-06-17T01:01:36.987Z,3.37
2018-06-17T01:04:05.983Z,3.10
2018-06-17T01:06:34.970Z,3.77
2018-06-17T01:09:04.116Z,3.30
2018-06-17T01:11:34.752Z,3.80
2018-06-17T01:14:08.955Z,3.80
2018-06-17T01:16:40.896Z,3.93
2018-06-17T01:19:13.871Z,4.10
2018-06-17T01:21:42.914Z,3.40
2018-06-17T01:24:11.839Z,4.00
2018-06-17T01:26:40.858Z,4.53
2018-06-17T01:29:13.095Z,3.43
2018-06-17T01:31:49.347Z,4.07
2018-06-17T01:34:22.157Z,4.13
2018-06-17T01:36:54.492Z,4.27
2018-06-17T01:39:26.133Z,4.27
2018-06-17T01:41:55.080Z,3.97
2018-06-17T01:44:23.975Z,5.03
2018-06-17T01:46:52.966Z,4.23
2018-06-17T01:49:29.852Z,4.20
2018-06-17T01:52:02.456Z,4.47
2018-06-17T01:54:34.495Z,4.00
2018-06-17T01:57:06.576Z,4.10
2018-06-17T01:59:45.549Z,4.50
2018-06-17T02:02:21.978Z,4.50
2018-06-17T02:04:58.678Z,3.30
2018-06-17T02:07:32.677Z,3.83
2018-06-17T02:10:06.647Z,4.30
2018-06-17T02:12:35.742Z,5.20
2018-06-17T02:15:09.125Z,4.50
2018-06-17T02:17:49.824Z,3.63
2018-06-17T02:20:21.866Z,3.47
2018-06-17T02:22:54.131Z,4.17
2018-06-17T02:25:23.025Z,4.67
2018-06-17T02:27:51.926Z,4.57
2018-06-17T02:30:20.782Z,4.33
2018-06-17T02:32:50.114Z,4.27
2018-06-17T02:35:21.259Z,4.47
2018-06-17T02:37:57.786Z,3.00
2018-06-17T02:40:30.841Z,3.60
2018-06-17T02:43:08.300Z,3.40
2018-06-17T02:45:45.478Z,4.43
2018-06-17T02:48:19.398Z,3.93
2018-06-17T02:50:53.503Z,3.93
2018-06-17T02:53:28.398Z,4.40
2018-06-17T02:55:58.210Z,4.30
2018-06-17T02:58:36.821Z,4.03
2018-06-17T03:09:43.007Z,4.43
2018-06-17T03:12:11.869Z,4.47
2018-06-17T03:14:40.812Z,4.73
2018-06-17T03:28:36.281Z,4.60
2018-06-17T03:31:10.323Z,4.00
2018-06-17T03:33:45.110Z,4.40
2018-06-17T03:36:28.328Z,4.37
2018-06-17T03:39:04.859Z,4.30
2018-06-17T03:47:17.368Z,4.37
2018-06-17T03:50:01.004Z,4.57
2018-06-17T03:52:29.990Z,4.27
2018-06-17T03:54:58.947Z,4.40
2018-06-17T03:57:28.008Z,5.27
2018-06-17T04:00:06.211Z,3.70
2018-06-17T04:05:21.235Z,3.57
2018-06-17T04:07:58.609Z,4.00
2018-06-17T04:10:40.437Z,3.47
2018-06-17T04:13:09.579Z,3.70
2018-06-17T04:15:38.808Z,4.30
2018-06-17T04:18:08.681Z,4.07
2018-06-17T04:32:49.347Z,4.13
2018-06-17T04:35:18.310Z,4.20
2018-06-17T04:37:47.260Z,3.27
2018-06-17T05:01:37.410Z,4.20
2018-06-17T05:04:06.486Z,4.03
2018-06-17T05:06:35.504Z,3.97
2018-06-17T05:09:06.624Z,3.97
2018-06-17T05:29:52.029Z,4.77
2018-06-17T05:32:20.947Z,3.47
2018-06-17T05:34:49.918Z,3.20
2018-06-17T05:46:26.922Z,3.30
2018-06-17T05:48:56.262Z,3.90
2018-06-17T05:51:25.313Z,3.73
2018-06-17T05:53:54.690Z,4.77
2018-06-17T06:08:41.554Z,4.47
2018-06-17T06:11:10.826Z,3.93
2018-06-17T06:13:39.762Z,3.37
2018-06-17T06:16:09.040Z,4.00
2018-06-17T06:30:37.945Z,4.30
2018-06-17T06:33:06.878Z,3.77
2018-06-17T06:35:35.884Z,3.83
2018-06-17T06:41:06.168Z,4.87
2018-06-17T06:48:49.583Z,4.13
2018-06-17T06:54:05.624Z,4.20
2018-06-17T06:56:50.072Z,5.27
2018-06-17T06:59:22.244Z,5.00
2018-06-17T07:02:06.000Z,3.73
2018-06-17T07:04:46.558Z,4.43
2018-06-17T07:07:26.404Z,4.13
2018-06-17T07:10:12.776Z,4.10
2018-06-17T07:12:41.835Z,4.23
2018-06-17T07:15:17.355Z,4.80
2018-06-17T07:18:08.731Z,3.77
2018-06-17T07:32:12.605Z,4.03
2018-06-17T07:34:42.205Z,4.03
2018-06-17T07:37:12.725Z,3.90
2018-06-17T08:11:14.107Z,3.63
2018-06-17T08:13:45.687Z,2.90
2018-06-17T08:16:14.966Z,3.97
2018-06-17T08:18:46.655Z,2.77
2018-06-17T08:21:22.555Z,3.40
2018-06-17T08:26:58.308Z,3.87
2018-06-17T08:30:13.298Z,2.60
2018-06-17T08:32:50.737Z,3.73
2018-06-17T08:35:29.957Z,3.20
2018-06-17T08:38:13.894Z,2.83
2018-06-17T09:10:32.802Z,2.57
2018-06-17T09:13:02.566Z,2.70
2018-06-17T09:15:31.638Z,2.70
2018-06-17T09:18:03.850Z,2.80
2018-06-17T09:27:29.522Z,2.67
2018-06-17T09:29:59.852Z,2.63
2018-06-17T09:32:33.577Z,2.83
2018-06-17T09:35:06.646Z,3.37
2018-06-17T09:37:45.940Z,3.00
2018-06-17T09:43:14.794Z,2.90
2018-06-17T09:45:43.937Z,2.70
2018-06-17T09:48:13.851Z,3.30
2018-06-17T09:51:01.555Z,3.13
2018-06-17T10:05:37.690Z,2.30
2018-06-17T10:08:06.739Z,2.50
2018-06-17T10:10:54.869Z,2.00
2018-06-17T10:22:32.420Z,2.43
2018-06-17T10:25:01.833Z,2.10
2018-06-17T10:27:31.197Z,1.70
2018-06-17T10:42:11.574Z,2.40
2018-06-17T10:44:41.031Z,2.13
2018-06-17T10:47:10.217Z,2.23
2018-06-17T11:02:01.033Z,1.90
2018-06-17T11:04:30.204Z,1.60
2018-06-17T11:06:59.853Z,1.40
2018-06-17T11:21:39.826Z,2.50
2018-06-17T11:24:08.859Z,1.60
2018-06-17T11:26:39.015Z,1.20
2018-06-17T11:41:20.573Z,1.40
2018-06-17T11:43:49.521Z,1.50
2018-06-17T11:46:19.922Z,1.40
2018-06-17T12:03:57.526Z,1.20
2018-06-17T12:06:26.662Z,1.20
2018-06-17T12:08:56.175Z,1.03
2018-06-17T12:20:36.333Z,0.80
2018-06-17T12:23:05.427Z,0.80
2018-06-17T12:25:34.512Z,1.00
2018-06-17T12:28:05.819Z,0.90
2018-06-17T12:43:23.972Z,1.10
2018-06-17T12:46:08.772Z,1.20
2018-06-17T13:06:42.822Z,2.30
2018-06-17T13:09:13.016Z,2.60
2018-06-17T13:26:59.966Z,4.07
2018-06-17T13:29:32.939Z,5.30
2018-06-17T13:32:02.203Z,6.13
2018-06-17T13:49:36.569Z,6.00
2018-06-17T13:52:08.542Z,7.90
2018-06-17T13:54:54.569Z,7.97
2018-06-17T14:09:35.590Z,40.77
2018-06-17T14:12:04.753Z,20.77
2018-06-17T14:14:34.047Z,21.70
2018-06-17T14:32:16.442Z,9.07
2018-06-17T14:34:45.431Z,6.10
2018-06-17T14:37:16.486Z,4.80
2018-06-17T14:49:18.769Z,5.60
2018-06-17T14:56:56.331Z,5.40
2018-06-17T14:59:25.313Z,5.30
2018-06-17T15:01:57.034Z,6.30
2018-06-17T15:04:35.454Z,6.63
2018-06-17T15:07:17.644Z,6.70
2018-06-17T15:09:50.942Z,6.83
2018-06-17T15:12:25.642Z,6.00
2018-06-17T15:15:01.355Z,5.67
2018-06-17T15:17:35.195Z,7.03
2018-06-17T15:20:05.087Z,6.50
2018-06-17T15:22:33.911Z,5.93
2018-06-17T15:25:03.116Z,7.13
2018-06-17T15:27:32.588Z,6.40
2018-06-17T15:30:10.552Z,6.20
2018-06-17T15:32:44.879Z,5.87
2018-06-17T15:35:21.296Z,5.90
2018-06-17T15:37:55.351Z,6.57
2018-06-17T15:40:29.209Z,6.03
2018-06-17T15:42:58.126Z,6.80
2018-06-17T15:54:17.157Z,7.13
2018-06-17T15:56:46.321Z,6.97
2018-06-17T15:59:15.332Z,7.13
2018-06-17T16:04:40.964Z,6.47
2018-06-17T16:25:58.294Z,6.80
2018-06-17T16:28:27.974Z,6.17
2018-06-17T16:30:57.078Z,7.57
2018-06-17T16:33:25.906Z,7.23
2018-06-17T16:35:54.970Z,7.33
2018-06-17T16:47:19.779Z,8.77
2018-06-17T16:49:48.566Z,8.43
2018-06-17T16:52:22.626Z,9.67
2018-06-17T17:03:49.451Z,9.00
2018-06-17T17:06:18.403Z,8.47
2018-06-17T17:08:47.443Z,9.73
2018-06-17T17:11:21.671Z,9.00
2018-06-17T17:22:51.683Z,9.27
2018-06-17T17:25:21.811Z,10.67
2018-06-17T17:27:52.488Z,9.57
2018-06-17T17:42:34.082Z,11.07
2018-06-17T17:45:07.113Z,10.30
2018-06-17T17:47:36.375Z,11.10
2018-06-17T18:05:26.729Z,9.10
2018-06-17T18:07:56.702Z,7.90
2018-06-17T18:10:26.249Z,8.70
2018-06-17T18:25:29.096Z,7.83
2018-06-17T18:28:03.669Z,7.50
2018-06-17T18:30:37.756Z,7.40
2018-06-17T18:51:24.700Z,10.70
2018-06-17T18:53:54.618Z,11.57
2018-06-17T18:56:34.105Z,10.73
2018-06-17T19:08:17.650Z,11.50
2018-06-17T19:12:56.332Z,10.47
2018-06-17T22:34:20.708Z,3.30
2018-06-17T23:26:35.902Z,3.80
2018-06-17T23:51:14.590Z,3.53
